sensor_id;sensor_type;location;lat;lon;timestamp;P1;durP1;ratioP1;P2;durP2;ratioP2
64894;SDS011;51588;53.702;10.208;2022-09-02T00:01:10;2.53;;;1.20;;
64894;SDS011;51588;53.702;10.208;2022-09-02T00:03:37;1.40;;;1.00;;
64894;SDS011;51588;53.702;10.208;2022-09-02T00:06:03;1.33;;;1.10;;
64894;SDS011;51588;53.702;10.208;2022-09-02T00:08:31;1.33;;;1.23;;
64894;SDS011;51588;53.702;10.208;2022-09-02T00:10:57;1.43;;;1.13;;
64894;SDS011;51588;53.702;10.208;2022-09-02T00:13:25;1.40;;;1.00;;
64894;SDS011;51588;53.702;10.208;2022-09-02T00:15:52;1.10;;;0.97;;
64894;SDS011;51588;53.702;10.208;2022-09-02T00:18:18;1.13;;;1.03;;
64894;SDS011;51588;53.702;10.208;2022-09-02T00:20:45;2.03;;;1.37;;
64894;SDS011;51588;53.702;10.208;2022-09-02T00:23:12;1.30;;;1.17;;
64894;SDS011;51588;53.702;10.208;2022-09-02T00:25:41;1.37;;;1.20;;
64894;SDS011;51588;53.702;10.208;2022-09-02T00:28:08;1.20;;;1.10;;
64894;SDS011;51588;53.702;10.208;2022-09-02T00:30:35;1.10;;;0.93;;
64894;SDS011;51588;53.702;10.208;2022-09-02T00:33:02;1.30;;;1.20;;
64894;SDS011;51588;53.702;10.208;2022-09-02T00:35:29;1.40;;;1.20;;
64894;SDS011;51588;53.702;10.208;2022-09-02T00:37:55;1.87;;;1.20;;
64894;SDS011;51588;53.702;10.208;2022-09-02T00:40:22;1.30;;;1.10;;
64894;SDS011;51588;53.702;10.208;2022-09-02T00:42:49;1.20;;;1.10;;
64894;SDS011;51588;53.702;10.208;2022-09-02T00:45:16;1.37;;;1.17;;
64894;SDS011;51588;53.702;10.208;2022-09-02T00:47:43;1.10;;;1.00;;
64894;SDS011;51588;53.702;10.208;2022-09-02T00:50:11;1.00;;;0.90;;
64894;SDS011;51588;53.702;10.208;2022-09-02T00:52:38;1.63;;;1.20;;
64894;SDS011;51588;53.702;10.208;2022-09-02T00:55:08;2.70;;;1.10;;
64894;SDS011;51588;53.702;10.208;2022-09-02T00:57:36;1.20;;;1.10;;
64894;SDS011;51588;53.702;10.208;2022-09-02T01:00:06;1.07;;;0.90;;
64894;SDS011;51588;53.702;10.208;2022-09-02T01:02:34;1.20;;;1.00;;
64894;SDS011;51588;53.702;10.208;2022-09-02T01:05:02;2.13;;;1.17;;
64894;SDS011;51588;53.702;10.208;2022-09-02T01:07:31;1.17;;;1.03;;
64894;SDS011;51588;53.702;10.208;2022-09-02T01:09:58;2.30;;;0.97;;
64894;SDS011;51588;53.702;10.208;2022-09-02T01:12:25;2.07;;;1.20;;
64894;SDS011;51588;53.702;10.208;2022-09-02T01:14:55;2.17;;;1.30;;
64894;SDS011;51588;53.702;10.208;2022-09-02T01:17:23;1.00;;;0.90;;
64894;SDS011;51588;53.702;10.208;2022-09-02T01:19:50;1.20;;;1.10;;
64894;SDS011;51588;53.702;10.208;2022-09-02T01:22:20;1.40;;;1.00;;
64894;SDS011;51588;53.702;10.208;2022-09-02T01:24:47;1.27;;;1.00;;
64894;SDS011;51588;53.702;10.208;2022-09-02T01:27:13;1.43;;;1.33;;
64894;SDS011;51588;53.702;10.208;2022-09-02T01:29:40;1.50;;;1.00;;
64894;SDS011;51588;53.702;10.208;2022-09-02T01:32:07;1.33;;;1.00;;
64894;SDS011;51588;53.702;10.208;2022-09-02T01:34:33;1.27;;;1.17;;
64894;SDS011;51588;53.702;10.208;2022-09-02T01:36:59;2.80;;;1.10;;
64894;SDS011;51588;53.702;10.208;2022-09-02T01:39:27;2.37;;;1.33;;
64894;SDS011;51588;53.702;10.208;2022-09-02T01:41:54;1.03;;;0.93;;
64894;SDS011;51588;53.702;10.208;2022-09-02T01:44:20;1.13;;;1.00;;
64894;SDS011;51588;53.702;10.208;2022-09-02T01:46:46;1.10;;;1.00;;
64894;SDS011;51588;53.702;10.208;2022-09-02T01:49:13;2.23;;;1.17;;
64894;SDS011;51588;53.702;10.208;2022-09-02T01:51:39;2.10;;;1.23;;
64894;SDS011;51588;53.702;10.208;2022-09-02T01:54:05;1.17;;;1.00;;
64894;SDS011;51588;53.702;10.208;2022-09-02T01:56:33;2.37;;;1.10;;
64894;SDS011;51588;53.702;10.208;2022-09-02T01:59:00;1.00;;;0.90;;
64894;SDS011;51588;53.702;10.208;2022-09-02T02:01:27;1.97;;;1.20;;
64894;SDS011;51588;53.702;10.208;2022-09-02T02:03:53;1.20;;;1.07;;
64894;SDS011;51588;53.702;10.208;2022-09-02T02:06:19;1.23;;;1.10;;
64894;SDS011;51588;53.702;10.208;2022-09-02T02:08:46;1.43;;;1.00;;
64894;SDS011;51588;53.702;10.208;2022-09-02T02:11:17;2.27;;;1.10;;
64894;SDS011;51588;53.702;10.208;2022-09-02T02:13:45;1.30;;;1.20;;
64894;SDS011;51588;53.702;10.208;2022-09-02T02:16:11;2.50;;;1.20;;
64894;SDS011;51588;53.702;10.208;2022-09-02T02:18:38;1.40;;;1.30;;
64894;SDS011;51588;53.702;10.208;2022-09-02T02:21:04;1.20;;;1.10;;
64894;SDS011;51588;53.702;10.208;2022-09-02T02:23:31;1.10;;;0.90;;
64894;SDS011;51588;53.702;10.208;2022-09-02T02:25:57;1.00;;;0.90;;
64894;SDS011;51588;53.702;10.208;2022-09-02T02:28:23;1.93;;;0.97;;
64894;SDS011;51588;53.702;10.208;2022-09-02T02:30:51;1.77;;;1.00;;
64894;SDS011;51588;53.702;10.208;2022-09-02T02:33:18;1.70;;;0.97;;
64894;SDS011;51588;53.702;10.208;2022-09-02T02:35:44;1.20;;;1.03;;
64894;SDS011;51588;53.702;10.208;2022-09-02T02:38:11;1.00;;;0.90;;
64894;SDS011;51588;53.702;10.208;2022-09-02T02:40:37;1.50;;;1.30;;
64894;SDS011;51588;53.702;10.208;2022-09-02T02:43:04;2.03;;;1.10;;
64894;SDS011;51588;53.702;10.208;2022-09-02T02:45:30;1.53;;;1.00;;
64894;SDS011;51588;53.702;10.208;2022-09-02T02:47:58;0.90;;;0.80;;
64894;SDS011;51588;53.702;10.208;2022-09-02T02:50:24;1.17;;;0.93;;
64894;SDS011;51588;53.702;10.208;2022-09-02T02:52:51;1.20;;;1.10;;
64894;SDS011;51588;53.702;10.208;2022-09-02T02:55:19;3.37;;;1.00;;
64894;SDS011;51588;53.702;10.208;2022-09-02T02:57:45;1.07;;;0.97;;
64894;SDS011;51588;53.702;10.208;2022-09-02T03:00:13;1.10;;;1.00;;
64894;SDS011;51588;53.702;10.208;2022-09-02T03:02:40;1.30;;;1.10;;
64894;SDS011;51588;53.702;10.208;2022-09-02T03:05:09;1.47;;;1.07;;
64894;SDS011;51588;53.702;10.208;2022-09-02T03:07:36;1.63;;;1.10;;
64894;SDS011;51588;53.702;10.208;2022-09-02T03:10:03;1.20;;;1.00;;
64894;SDS011;51588;53.702;10.208;2022-09-02T03:12:32;1.30;;;0.90;;
64894;SDS011;51588;53.702;10.208;2022-09-02T03:14:58;1.10;;;1.00;;
64894;SDS011;51588;53.702;10.208;2022-09-02T03:17:25;1.20;;;1.10;;
64894;SDS011;51588;53.702;10.208;2022-09-02T03:19:51;3.10;;;1.10;;
64894;SDS011;51588;53.702;10.208;2022-09-02T03:22:19;1.20;;;1.00;;
64894;SDS011;51588;53.702;10.208;2022-09-02T03:24:45;1.20;;;1.03;;
64894;SDS011;51588;53.702;10.208;2022-09-02T03:27:12;2.10;;;0.90;;
64894;SDS011;51588;53.702;10.208;2022-09-02T03:29:38;1.10;;;1.00;;
64894;SDS011;51588;53.702;10.208;2022-09-02T03:32:05;1.33;;;1.17;;
64894;SDS011;51588;53.702;10.208;2022-09-02T03:34:31;1.70;;;1.10;;
64894;SDS011;51588;53.702;10.208;2022-09-02T03:36:58;0.97;;;0.87;;
64894;SDS011;51588;53.702;10.208;2022-09-02T03:39:25;1.03;;;0.90;;
64894;SDS011;51588;53.702;10.208;2022-09-02T03:41:52;1.20;;;1.00;;
64894;SDS011;51588;53.702;10.208;2022-09-02T03:44:18;3.23;;;1.13;;
64894;SDS011;51588;53.702;10.208;2022-09-02T03:46:45;1.60;;;1.30;;
64894;SDS011;51588;53.702;10.208;2022-09-02T03:49:11;1.50;;;1.13;;
64894;SDS011;51588;53.702;10.208;2022-09-02T03:51:38;1.40;;;1.00;;
64894;SDS011;51588;53.702;10.208;2022-09-02T03:54:05;1.67;;;1.03;;
64894;SDS011;51588;53.702;10.208;2022-09-02T03:56:33;1.20;;;1.10;;
64894;SDS011;51588;53.702;10.208;2022-09-02T03:58:59;1.53;;;1.13;;
64894;SDS011;51588;53.702;10.208;2022-09-02T04:01:26;1.20;;;1.10;;
64894;SDS011;51588;53.702;10.208;2022-09-02T04:03:53;1.00;;;0.90;;
64894;SDS011;51588;53.702;10.208;2022-09-02T04:06:20;1.00;;;0.90;;
64894;SDS011;51588;53.702;10.208;2022-09-02T04:08:48;1.00;;;0.90;;
64894;SDS011;51588;53.702;10.208;2022-09-02T04:11:15;1.20;;;1.10;;
64894;SDS011;51588;53.702;10.208;2022-09-02T04:13:43;1.20;;;1.00;;
64894;SDS011;51588;53.702;10.208;2022-09-02T04:16:10;2.07;;;1.00;;
64894;SDS011;51588;53.702;10.208;2022-09-02T04:18:37;1.40;;;1.00;;
64894;SDS011;51588;53.702;10.208;2022-09-02T04:21:04;1.27;;;1.03;;
64894;SDS011;51588;53.702;10.208;2022-09-02T04:23:30;1.57;;;1.17;;
64894;SDS011;51588;53.702;10.208;2022-09-02T04:25:57;1.00;;;0.90;;
64894;SDS011;51588;53.702;10.208;2022-09-02T04:28:23;1.20;;;1.00;;
64894;SDS011;51588;53.702;10.208;2022-09-02T04:30:51;2.00;;;1.30;;
64894;SDS011;51588;53.702;10.208;2022-09-02T04:33:17;1.53;;;1.00;;
64894;SDS011;51588;53.702;10.208;2022-09-02T04:35:45;1.27;;;1.00;;
64894;SDS011;51588;53.702;10.208;2022-09-02T04:38:12;2.13;;;1.03;;
64894;SDS011;51588;53.702;10.208;2022-09-02T04:40:39;1.43;;;1.07;;
64894;SDS011;51588;53.702;10.208;2022-09-02T04:43:06;1.00;;;0.90;;
64894;SDS011;51588;53.702;10.208;2022-09-02T04:45:32;2.03;;;1.10;;
64894;SDS011;51588;53.702;10.208;2022-09-02T04:48:00;1.13;;;1.03;;
64894;SDS011;51588;53.702;10.208;2022-09-02T04:50:27;1.27;;;1.10;;
64894;SDS011;51588;53.702;10.208;2022-09-02T04:52:53;1.57;;;1.10;;
64894;SDS011;51588;53.702;10.208;2022-09-02T04:55:19;1.47;;;1.10;;
64894;SDS011;51588;53.702;10.208;2022-09-02T04:57:46;1.20;;;1.10;;
64894;SDS011;51588;53.702;10.208;2022-09-02T05:00:13;1.20;;;1.10;;
64894;SDS011;51588;53.702;10.208;2022-09-02T05:02:39;1.20;;;1.07;;
64894;SDS011;51588;53.702;10.208;2022-09-02T05:05:07;1.10;;;1.00;;
64894;SDS011;51588;53.702;10.208;2022-09-02T05:07:35;1.20;;;1.00;;
64894;SDS011;51588;53.702;10.208;2022-09-02T05:10:02;1.10;;;1.00;;
64894;SDS011;51588;53.702;10.208;2022-09-02T05:12:30;1.23;;;1.13;;
64894;SDS011;51588;53.702;10.208;2022-09-02T05:14:56;1.03;;;0.93;;
64894;SDS011;51588;53.702;10.208;2022-09-02T05:17:25;1.50;;;1.20;;
64894;SDS011;51588;53.702;10.208;2022-09-02T05:19:51;1.37;;;1.27;;
64894;SDS011;51588;53.702;10.208;2022-09-02T05:22:19;1.20;;;1.10;;
64894;SDS011;51588;53.702;10.208;2022-09-02T05:24:46;1.30;;;1.20;;
64894;SDS011;51588;53.702;10.208;2022-09-02T05:27:12;2.20;;;1.10;;
64894;SDS011;51588;53.702;10.208;2022-09-02T05:29:40;1.23;;;0.90;;
64894;SDS011;51588;53.702;10.208;2022-09-02T05:32:06;5.37;;;1.13;;
64894;SDS011;51588;53.702;10.208;2022-09-02T05:34:33;3.20;;;1.20;;
64894;SDS011;51588;53.702;10.208;2022-09-02T05:37:00;2.20;;;1.20;;
64894;SDS011;51588;53.702;10.208;2022-09-02T05:39:27;1.33;;;1.10;;
64894;SDS011;51588;53.702;10.208;2022-09-02T05:41:55;5.83;;;2.23;;
64894;SDS011;51588;53.702;10.208;2022-09-02T05:44:21;10.07;;;3.50;;
64894;SDS011;51588;53.702;10.208;2022-09-02T05:46:47;6.80;;;3.33;;
64894;SDS011;51588;53.702;10.208;2022-09-02T05:49:14;8.37;;;3.40;;
64894;SDS011;51588;53.702;10.208;2022-09-02T05:51:42;6.63;;;3.00;;
64894;SDS011;51588;53.702;10.208;2022-09-02T05:54:10;7.47;;;3.03;;
64894;SDS011;51588;53.702;10.208;2022-09-02T05:56:39;13.40;;;3.47;;
64894;SDS011;51588;53.702;10.208;2022-09-02T05:59:06;10.40;;;2.83;;
64894;SDS011;51588;53.702;10.208;2022-09-02T06:01:33;10.27;;;2.90;;
64894;SDS011;51588;53.702;10.208;2022-09-02T06:03:59;13.43;;;2.90;;
64894;SDS011;51588;53.702;10.208;2022-09-02T06:06:26;8.73;;;2.70;;
64894;SDS011;51588;53.702;10.208;2022-09-02T06:08:52;7.33;;;2.23;;
64894;SDS011;51588;53.702;10.208;2022-09-02T06:11:19;6.53;;;2.33;;
64894;SDS011;51588;53.702;10.208;2022-09-02T06:13:47;5.03;;;2.37;;
64894;SDS011;51588;53.702;10.208;2022-09-02T06:16:14;9.63;;;2.13;;
64894;SDS011;51588;53.702;10.208;2022-09-02T06:18:40;12.60;;;2.70;;
64894;SDS011;51588;53.702;10.208;2022-09-02T06:21:07;29.20;;;3.33;;
64894;SDS011;51588;53.702;10.208;2022-09-02T06:23:34;19.67;;;3.23;;
64894;SDS011;51588;53.702;10.208;2022-09-02T06:26:02;14.30;;;3.23;;
64894;SDS011;51588;53.702;10.208;2022-09-02T06:28:28;13.27;;;3.00;;
64894;SDS011;51588;53.702;10.208;2022-09-02T06:30:57;12.23;;;2.63;;
64894;SDS011;51588;53.702;10.208;2022-09-02T06:33:24;26.83;;;3.47;;
64894;SDS011;51588;53.702;10.208;2022-09-02T06:35:50;10.10;;;2.37;;
64894;SDS011;51588;53.702;10.208;2022-09-02T06:38:16;8.97;;;2.27;;
64894;SDS011;51588;53.702;10.208;2022-09-02T06:40:47;11.93;;;2.77;;
64894;SDS011;51588;53.702;10.208;2022-09-02T06:43:14;8.80;;;2.37;;
64894;SDS011;51588;53.702;10.208;2022-09-02T06:45:40;17.83;;;2.87;;
64894;SDS011;51588;53.702;10.208;2022-09-02T06:48:08;11.83;;;2.30;;
64894;SDS011;51588;53.702;10.208;2022-09-02T06:50:36;9.20;;;2.50;;
64894;SDS011;51588;53.702;10.208;2022-09-02T06:53:03;11.03;;;2.20;;
64894;SDS011;51588;53.702;10.208;2022-09-02T06:55:33;6.23;;;2.30;;
64894;SDS011;51588;53.702;10.208;2022-09-02T06:57:59;6.87;;;1.67;;
64894;SDS011;51588;53.702;10.208;2022-09-02T07:00:25;5.67;;;2.10;;
64894;SDS011;51588;53.702;10.208;2022-09-02T07:02:52;14.67;;;1.87;;
64894;SDS011;51588;53.702;10.208;2022-09-02T07:05:33;10.43;;;2.37;;
64894;SDS011;51588;53.702;10.208;2022-09-02T07:08:00;6.17;;;1.73;;
64894;SDS011;51588;53.702;10.208;2022-09-02T07:10:26;4.83;;;1.80;;
64894;SDS011;51588;53.702;10.208;2022-09-02T07:12:53;11.83;;;1.90;;
64894;SDS011;51588;53.702;10.208;2022-09-02T07:15:19;5.63;;;1.63;;
64894;SDS011;51588;53.702;10.208;2022-09-02T07:17:45;5.13;;;1.63;;
64894;SDS011;51588;53.702;10.208;2022-09-02T07:20:13;6.83;;;1.73;;
64894;SDS011;51588;53.702;10.208;2022-09-02T07:22:41;8.17;;;1.97;;
64894;SDS011;51588;53.702;10.208;2022-09-02T07:25:08;5.57;;;1.80;;
64894;SDS011;51588;53.702;10.208;2022-09-02T07:27:34;4.97;;;2.00;;
64894;SDS011;51588;53.702;10.208;2022-09-02T07:30:01;3.70;;;1.60;;
64894;SDS011;51588;53.702;10.208;2022-09-02T07:32:29;8.33;;;1.73;;
64894;SDS011;51588;53.702;10.208;2022-09-02T07:34:55;4.53;;;1.70;;
64894;SDS011;51588;53.702;10.208;2022-09-02T07:37:22;4.00;;;1.50;;
64894;SDS011;51588;53.702;10.208;2022-09-02T07:39:50;2.50;;;1.77;;
64894;SDS011;51588;53.702;10.208;2022-09-02T07:42:17;3.10;;;1.47;;
64894;SDS011;51588;53.702;10.208;2022-09-02T07:44:43;2.60;;;1.30;;
64894;SDS011;51588;53.702;10.208;2022-09-02T07:47:09;7.93;;;1.30;;
64894;SDS011;51588;53.702;10.208;2022-09-02T07:49:36;3.07;;;1.30;;
64894;SDS011;51588;53.702;10.208;2022-09-02T07:52:02;2.67;;;1.50;;
64894;SDS011;51588;53.702;10.208;2022-09-02T07:54:28;1.93;;;1.30;;
64894;SDS011;51588;53.702;10.208;2022-09-02T07:56:57;1.33;;;1.10;;
64894;SDS011;51588;53.702;10.208;2022-09-02T07:59:24;3.30;;;1.23;;
64894;SDS011;51588;53.702;10.208;2022-09-02T08:01:50;7.07;;;1.33;;
64894;SDS011;51588;53.702;10.208;2022-09-02T08:04:17;1.83;;;1.33;;
64894;SDS011;51588;53.702;10.208;2022-09-02T08:06:44;3.37;;;1.57;;
64894;SDS011;51588;53.702;10.208;2022-09-02T08:09:10;2.20;;;1.40;;
64894;SDS011;51588;53.702;10.208;2022-09-02T08:11:37;4.17;;;1.30;;
64894;SDS011;51588;53.702;10.208;2022-09-02T08:14:06;19.00;;;1.57;;
64894;SDS011;51588;53.702;10.208;2022-09-02T08:16:32;2.97;;;1.30;;
64894;SDS011;51588;53.702;10.208;2022-09-02T08:18:59;6.10;;;1.40;;
64894;SDS011;51588;53.702;10.208;2022-09-02T08:21:25;2.23;;;1.20;;
64894;SDS011;51588;53.702;10.208;2022-09-02T08:23:52;5.23;;;1.30;;
64894;SDS011;51588;53.702;10.208;2022-09-02T08:26:18;8.83;;;1.90;;
64894;SDS011;51588;53.702;10.208;2022-09-02T08:28:45;7.53;;;1.97;;
64894;SDS011;51588;53.702;10.208;2022-09-02T08:31:13;10.60;;;1.97;;
64894;SDS011;51588;53.702;10.208;2022-09-02T08:33:39;16.57;;;2.30;;
64894;SDS011;51588;53.702;10.208;2022-09-02T08:36:06;5.93;;;1.90;;
64894;SDS011;51588;53.702;10.208;2022-09-02T08:38:35;7.53;;;1.73;;
64894;SDS011;51588;53.702;10.208;2022-09-02T08:41:01;6.00;;;1.50;;
64894;SDS011;51588;53.702;10.208;2022-09-02T08:43:29;1.53;;;1.27;;
64894;SDS011;51588;53.702;10.208;2022-09-02T08:46:02;6.77;;;1.40;;
64894;SDS011;51588;53.702;10.208;2022-09-02T08:48:33;4.03;;;1.37;;
64894;SDS011;51588;53.702;10.208;2022-09-02T08:51:02;5.17;;;1.53;;
64894;SDS011;51588;53.702;10.208;2022-09-02T08:53:29;4.20;;;1.70;;
64894;SDS011;51588;53.702;10.208;2022-09-02T08:55:57;5.30;;;1.40;;
64894;SDS011;51588;53.702;10.208;2022-09-02T08:58:25;3.83;;;1.20;;
64894;SDS011;51588;53.702;10.208;2022-09-02T09:00:57;16.43;;;2.43;;
64894;SDS011;51588;53.702;10.208;2022-09-02T09:03:29;9.33;;;1.90;;
64894;SDS011;51588;53.702;10.208;2022-09-02T09:06:01;4.70;;;1.43;;
64894;SDS011;51588;53.702;10.208;2022-09-02T09:08:31;7.60;;;1.70;;
64894;SDS011;51588;53.702;10.208;2022-09-02T09:11:09;5.37;;;1.30;;
64894;SDS011;51588;53.702;10.208;2022-09-02T09:13:52;4.13;;;1.80;;
64894;SDS011;51588;53.702;10.208;2022-09-02T09:16:23;4.30;;;1.83;;
64894;SDS011;51588;53.702;10.208;2022-09-02T09:18:53;16.83;;;1.57;;
64894;SDS011;51588;53.702;10.208;2022-09-02T09:21:22;4.70;;;1.30;;
64894;SDS011;51588;53.702;10.208;2022-09-02T09:23:49;8.03;;;1.23;;
64894;SDS011;51588;53.702;10.208;2022-09-02T09:26:19;3.80;;;1.20;;
64894;SDS011;51588;53.702;10.208;2022-09-02T09:28:47;4.57;;;1.63;;
64894;SDS011;51588;53.702;10.208;2022-09-02T09:31:14;6.50;;;1.63;;
64894;SDS011;51588;53.702;10.208;2022-09-02T09:33:55;4.60;;;2.30;;
64894;SDS011;51588;53.702;10.208;2022-09-02T09:36:26;10.30;;;1.30;;
64894;SDS011;51588;53.702;10.208;2022-09-02T09:39:15;6.10;;;1.43;;
64894;SDS011;51588;53.702;10.208;2022-09-02T09:41:42;3.60;;;1.20;;
64894;SDS011;51588;53.702;10.208;2022-09-02T09:44:09;3.43;;;1.40;;
64894;SDS011;51588;53.702;10.208;2022-09-02T09:46:36;4.00;;;1.63;;
64894;SDS011;51588;53.702;10.208;2022-09-02T09:49:02;1.90;;;1.40;;
64894;SDS011;51588;53.702;10.208;2022-09-02T09:51:30;3.83;;;0.93;;
64894;SDS011;51588;53.702;10.208;2022-09-02T09:54:12;1.13;;;0.97;;
64894;SDS011;51588;53.702;10.208;2022-09-02T09:56:39;1.73;;;1.10;;
64894;SDS011;51588;53.702;10.208;2022-09-02T09:59:06;5.27;;;1.10;;
64894;SDS011;51588;53.702;10.208;2022-09-02T10:01:34;4.30;;;1.27;;
64894;SDS011;51588;53.702;10.208;2022-09-02T10:04:02;2.90;;;1.30;;
64894;SDS011;51588;53.702;10.208;2022-09-02T10:06:37;1.63;;;1.07;;
64894;SDS011;51588;53.702;10.208;2022-09-02T10:09:04;5.03;;;1.47;;
64894;SDS011;51588;53.702;10.208;2022-09-02T10:11:32;6.63;;;1.30;;
64894;SDS011;51588;53.702;10.208;2022-09-02T10:13:59;7.03;;;1.30;;
64894;SDS011;51588;53.702;10.208;2022-09-02T10:16:33;2.40;;;1.20;;
64894;SDS011;51588;53.702;10.208;2022-09-02T10:19:03;3.00;;;1.00;;
64894;SDS011;51588;53.702;10.208;2022-09-02T10:21:42;8.73;;;1.70;;
64894;SDS011;51588;53.702;10.208;2022-09-02T10:24:24;14.20;;;1.83;;
64894;SDS011;51588;53.702;10.208;2022-09-02T10:26:55;6.27;;;1.70;;
64894;SDS011;51588;53.702;10.208;2022-09-02T10:29:30;8.73;;;1.30;;
64894;SDS011;51588;53.702;10.208;2022-09-02T10:32:13;6.30;;;1.10;;
64894;SDS011;51588;53.702;10.208;2022-09-02T10:34:44;2.83;;;1.30;;
64894;SDS011;51588;53.702;10.208;2022-09-02T10:37:18;1.60;;;1.10;;
64894;SDS011;51588;53.702;10.208;2022-09-02T10:39:50;2.97;;;1.63;;
64894;SDS011;51588;53.702;10.208;2022-09-02T10:42:22;6.50;;;5.17;;
64894;SDS011;51588;53.702;10.208;2022-09-02T10:44:54;25.67;;;18.13;;
64894;SDS011;51588;53.702;10.208;2022-09-02T10:47:26;63.43;;;35.77;;
64894;SDS011;51588;53.702;10.208;2022-09-02T10:49:57;68.37;;;47.33;;
64894;SDS011;51588;53.702;10.208;2022-09-02T10:52:33;115.90;;;71.97;;
64894;SDS011;51588;53.702;10.208;2022-09-02T10:55:05;120.30;;;76.80;;
64894;SDS011;51588;53.702;10.208;2022-09-02T10:57:33;116.37;;;73.63;;
64894;SDS011;51588;53.702;10.208;2022-09-02T11:00:04;122.33;;;75.67;;
64894;SDS011;51588;53.702;10.208;2022-09-02T11:02:33;113.77;;;68.33;;
64894;SDS011;51588;53.702;10.208;2022-09-02T11:05:03;92.10;;;58.57;;
64894;SDS011;51588;53.702;10.208;2022-09-02T11:07:34;82.43;;;50.40;;
64894;SDS011;51588;53.702;10.208;2022-09-02T11:10:02;65.80;;;40.20;;
64894;SDS011;51588;53.702;10.208;2022-09-02T11:12:30;58.53;;;34.90;;
64894;SDS011;51588;53.702;10.208;2022-09-02T11:15:00;41.30;;;27.40;;
64894;SDS011;51588;53.702;10.208;2022-09-02T11:17:30;34.97;;;21.63;;
64894;SDS011;51588;53.702;10.208;2022-09-02T11:20:00;36.00;;;19.30;;
64894;SDS011;51588;53.702;10.208;2022-09-02T11:22:29;25.20;;;16.30;;
64894;SDS011;51588;53.702;10.208;2022-09-02T18:11:41;3.28;;;1.50;;
64894;SDS011;51588;53.702;10.208;2022-09-02T18:14:12;6.27;;;1.50;;
64894;SDS011;51588;53.702;10.208;2022-09-02T18:27:03;6.60;;;1.60;;
64894;SDS011;51588;53.702;10.208;2022-09-02T18:29:37;5.47;;;1.50;;
64894;SDS011;51588;53.702;10.208;2022-09-02T18:32:09;3.23;;;1.67;;
64894;SDS011;51588;53.702;10.208;2022-09-02T18:34:40;1.67;;;1.20;;
64894;SDS011;51588;53.702;10.208;2022-09-02T18:37:14;6.07;;;1.80;;
64894;SDS011;51588;53.702;10.208;2022-09-02T18:39:51;2.23;;;1.37;;
64894;SDS011;51588;53.702;10.208;2022-09-02T18:42:24;2.90;;;1.47;;
64894;SDS011;51588;53.702;10.208;2022-09-02T18:45:15;4.40;;;1.60;;
64894;SDS011;51588;53.702;10.208;2022-09-02T18:48:04;5.40;;;1.50;;
64894;SDS011;51588;53.702;10.208;2022-09-02T18:50:39;4.77;;;1.50;;
64894;SDS011;51588;53.702;10.208;2022-09-02T18:53:06;9.70;;;1.83;;
64894;SDS011;51588;53.702;10.208;2022-09-02T18:55:41;7.87;;;1.50;;
64894;SDS011;51588;53.702;10.208;2022-09-02T18:58:19;4.60;;;1.33;;
64894;SDS011;51588;53.702;10.208;2022-09-02T19:00:49;5.18;;;1.65;;
64894;SDS011;51588;53.702;10.208;2022-09-02T19:03:17;9.13;;;1.73;;
64894;SDS011;51588;53.702;10.208;2022-09-02T19:05:43;6.10;;;1.63;;
64894;SDS011;51588;53.702;10.208;2022-09-02T19:08:11;5.70;;;1.60;;
64894;SDS011;51588;53.702;10.208;2022-09-02T19:10:58;4.03;;;1.43;;
64894;SDS011;51588;53.702;10.208;2022-09-02T19:15:30;1.73;;;1.40;;
64894;SDS011;51588;53.702;10.208;2022-09-02T19:17:57;2.77;;;1.60;;
64894;SDS011;51588;53.702;10.208;2022-09-02T19:20:24;5.43;;;1.87;;
64894;SDS011;51588;53.702;10.208;2022-09-02T19:22:52;1.77;;;1.27;;
64894;SDS011;51588;53.702;10.208;2022-09-02T19:25:23;3.00;;;1.27;;
64894;SDS011;51588;53.702;10.208;2022-09-02T19:27:53;3.43;;;1.37;;
64894;SDS011;51588;53.702;10.208;2022-09-02T19:30:22;3.73;;;1.90;;
64894;SDS011;51588;53.702;10.208;2022-09-02T19:32:50;16.00;;;1.73;;
64894;SDS011;51588;53.702;10.208;2022-09-02T19:35:20;7.40;;;1.57;;
64894;SDS011;51588;53.702;10.208;2022-09-02T19:37:49;8.23;;;1.60;;
64894;SDS011;51588;53.702;10.208;2022-09-02T19:40:18;8.40;;;2.20;;
64894;SDS011;51588;53.702;10.208;2022-09-02T19:42:45;7.73;;;1.37;;
64894;SDS011;51588;53.702;10.208;2022-09-02T19:45:12;8.77;;;1.60;;
64894;SDS011;51588;53.702;10.208;2022-09-02T19:47:39;7.20;;;1.70;;
64894;SDS011;51588;53.702;10.208;2022-09-02T19:50:07;5.38;;;1.50;;
64894;SDS011;51588;53.702;10.208;2022-09-02T19:52:35;5.20;;;1.70;;
64894;SDS011;51588;53.702;10.208;2022-09-02T19:55:05;4.90;;;1.40;;
64894;SDS011;51588;53.702;10.208;2022-09-02T19:57:32;4.83;;;1.70;;
64894;SDS011;51588;53.702;10.208;2022-09-02T20:00:00;5.20;;;1.50;;
64894;SDS011;51588;53.702;10.208;2022-09-02T20:02:27;1.97;;;1.40;;
64894;SDS011;51588;53.702;10.208;2022-09-02T20:04:54;4.97;;;1.50;;
64894;SDS011;51588;53.702;10.208;2022-09-02T20:07:22;3.70;;;1.30;;
64894;SDS011;51588;53.702;10.208;2022-09-02T20:09:49;9.00;;;1.40;;
64894;SDS011;51588;53.702;10.208;2022-09-02T20:12:16;3.40;;;1.50;;
64894;SDS011;51588;53.702;10.208;2022-09-02T20:14:43;6.10;;;1.50;;
64894;SDS011;51588;53.702;10.208;2022-09-02T20:17:12;7.50;;;1.90;;
64894;SDS011;51588;53.702;10.208;2022-09-02T20:19:40;8.70;;;1.80;;
64894;SDS011;51588;53.702;10.208;2022-09-02T20:22:07;6.67;;;1.60;;
64894;SDS011;51588;53.702;10.208;2022-09-02T20:24:37;4.33;;;1.40;;
64894;SDS011;51588;53.702;10.208;2022-09-02T20:27:08;4.10;;;1.67;;
64894;SDS011;51588;53.702;10.208;2022-09-02T20:29:47;20.23;;;2.70;;
64894;SDS011;51588;53.702;10.208;2022-09-02T20:32:26;13.00;;;2.10;;
64894;SDS011;51588;53.702;10.208;2022-09-02T20:35:07;11.40;;;2.30;;
64894;SDS011;51588;53.702;10.208;2022-09-02T20:37:49;13.43;;;2.60;;
64894;SDS011;51588;53.702;10.208;2022-09-02T20:40:28;7.93;;;1.57;;
64894;SDS011;51588;53.702;10.208;2022-09-02T20:43:10;10.10;;;1.97;;
64894;SDS011;51588;53.702;10.208;2022-09-02T20:45:50;11.00;;;1.80;;
64894;SDS011;51588;53.702;10.208;2022-09-02T20:48:24;13.13;;;2.00;;
64894;SDS011;51588;53.702;10.208;2022-09-02T20:51:06;5.40;;;1.37;;
64894;SDS011;51588;53.702;10.208;2022-09-02T20:53:39;7.20;;;1.57;;
64894;SDS011;51588;53.702;10.208;2022-09-02T20:56:22;5.87;;;1.70;;
64894;SDS011;51588;53.702;10.208;2022-09-02T20:58:56;6.17;;;1.43;;
64894;SDS011;51588;53.702;10.208;2022-09-02T21:01:32;8.20;;;1.63;;
64894;SDS011;51588;53.702;10.208;2022-09-02T21:04:02;4.00;;;1.63;;
64894;SDS011;51588;53.702;10.208;2022-09-02T21:06:33;2.60;;;1.47;;
64894;SDS011;51588;53.702;10.208;2022-09-02T21:09:02;7.60;;;1.40;;
64894;SDS011;51588;53.702;10.208;2022-09-02T21:11:38;10.30;;;1.87;;
64894;SDS011;51588;53.702;10.208;2022-09-02T21:14:12;12.50;;;1.80;;
64894;SDS011;51588;53.702;10.208;2022-09-02T21:16:43;2.53;;;1.50;;
64894;SDS011;51588;53.702;10.208;2022-09-02T21:19:16;3.93;;;1.50;;
64894;SDS011;51588;53.702;10.208;2022-09-02T21:21:49;4.20;;;1.43;;
64894;SDS011;51588;53.702;10.208;2022-09-02T21:24:19;4.37;;;1.77;;
64894;SDS011;51588;53.702;10.208;2022-09-02T21:26:52;2.13;;;1.40;;
64894;SDS011;51588;53.702;10.208;2022-09-02T21:29:23;2.83;;;1.30;;
64894;SDS011;51588;53.702;10.208;2022-09-02T21:31:55;6.50;;;1.40;;
64894;SDS011;51588;53.702;10.208;2022-09-02T21:34:25;4.07;;;1.40;;
64894;SDS011;51588;53.702;10.208;2022-09-02T21:36:57;5.93;;;1.70;;
64894;SDS011;51588;53.702;10.208;2022-09-02T21:39:27;4.27;;;1.40;;